createdAt,value
2022-09-11T00:01:35.055Z,13.30
2022-09-11T00:04:03.135Z,13.30
2022-09-11T00:06:31.032Z,13.40
2022-09-11T00:09:03.935Z,13.40
2022-09-11T00:11:33.667Z,13.50
2022-09-11T00:14:01.153Z,13.50
2022-09-11T00:16:29.357Z,13.50
2022-09-11T00:18:58.968Z,13.50
2022-09-11T00:21:26.753Z,13.60
2022-09-11T00:23:53.687Z,13.80
2022-09-11T00:26:21.801Z,13.80
2022-09-11T00:28:50.695Z,13.80
2022-09-11T00:31:19.701Z,13.90
2022-09-11T00:33:46.599Z,13.80
2022-09-11T00:36:19.602Z,13.80
2022-09-11T00:38:47.716Z,13.70
2022-09-11T00:41:21.527Z,13.60
2022-09-11T00:44:16.305Z,13.60
2022-09-11T00:46:50.020Z,13.60
2022-09-11T00:49:16.870Z,13.60
2022-09-11T00:51:47.920Z,13.60
2022-09-11T00:54:19.453Z,13.60
2022-09-11T00:56:47.474Z,13.60
2022-09-11T00:59:15.290Z,13.60
2022-09-11T01:01:42.123Z,13.50
2022-09-11T01:04:09.843Z,13.50
2022-09-11T01:06:36.900Z,13.40
2022-09-11T01:09:04.205Z,13.40
2022-09-11T01:11:40.440Z,13.30
2022-09-11T01:14:21.812Z,13.20
2022-09-11T01:17:15.272Z,13.20
2022-09-11T01:20:06.636Z,13.20
2022-09-11T01:22:57.696Z,13.10
2022-09-11T01:25:39.681Z,13.10
2022-09-11T01:28:20.691Z,13.10
2022-09-11T01:30:54.846Z,13.00
2022-09-11T01:33:31.033Z,12.90
2022-09-11T01:36:23.697Z,13.10
2022-09-11T01:38:54.141Z,12.90
2022-09-11T01:41:32.028Z,12.80
2022-09-11T01:44:40.715Z,12.70
2022-09-11T01:47:11.802Z,12.70
2022-09-11T01:49:44.986Z,12.70
2022-09-11T01:52:23.203Z,12.90
2022-09-11T01:55:01.370Z,13.00
2022-09-11T01:57:36.614Z,13.10
2022-09-11T02:00:08.676Z,13.20
2022-09-11T02:03:17.492Z,13.20
2022-09-11T02:05:52.011Z,13.20
2022-09-11T02:08:54.522Z,13.20
2022-09-11T02:11:23.489Z,13.20
2022-09-11T02:14:00.862Z,13.30
2022-09-11T02:17:03.815Z,13.40
2022-09-11T02:19:31.599Z,13.50
2022-09-11T02:21:59.347Z,13.60
2022-09-11T02:24:27.438Z,13.70
2022-09-11T02:27:05.250Z,13.80
2022-09-11T02:29:33.354Z,13.70
2022-09-11T02:32:01.269Z,13.80
2022-09-11T02:34:33.485Z,14.00
2022-09-11T02:37:21.268Z,14.20
2022-09-11T02:40:09.265Z,14.30
2022-09-11T02:43:09.993Z,14.40
2022-09-11T02:45:54.381Z,14.40
2022-09-11T02:48:43.357Z,14.40
2022-09-11T02:51:38.376Z,14.40
2022-09-11T02:54:20.158Z,14.40
2022-09-11T02:56:52.398Z,14.40
2022-09-11T02:59:26.771Z,14.40
2022-09-11T03:01:56.026Z,14.50
2022-09-11T03:04:26.038Z,14.50
2022-09-11T03:06:54.834Z,14.50
2022-09-11T03:09:22.784Z,14.50
2022-09-11T03:11:54.990Z,14.50
2022-09-11T03:14:21.983Z,14.60
2022-09-11T03:16:50.050Z,14.60
2022-09-11T03:19:19.190Z,14.60
2022-09-11T03:21:46.015Z,14.60
2022-09-11T03:24:13.163Z,14.60
2022-09-11T03:26:40.261Z,14.60
2022-09-11T03:29:08.542Z,14.60
2022-09-11T03:31:39.097Z,14.60
2022-09-11T03:34:07.224Z,14.60
2022-09-11T03:36:34.499Z,14.60
2022-09-11T03:39:01.955Z,14.70
2022-09-11T03:41:30.645Z,14.60
2022-09-11T03:43:57.836Z,14.70
2022-09-11T03:46:25.625Z,14.70
2022-09-11T03:48:53.336Z,14.70
2022-09-11T03:51:21.231Z,14.70
2022-09-11T03:53:48.253Z,14.70
2022-09-11T03:56:16.082Z,14.70
2022-09-11T03:58:48.111Z,14.70
2022-09-11T04:01:19.161Z,14.70
2022-09-11T04:03:46.740Z,14.70
2022-09-11T04:06:23.287Z,14.70
2022-09-11T04:08:50.239Z,14.70
2022-09-11T04:11:18.841Z,14.70
2022-09-11T04:13:45.730Z,14.70
2022-09-11T04:16:17.940Z,14.70
2022-09-11T04:18:48.930Z,14.70
2022-09-11T04:21:17.836Z,14.70
2022-09-11T04:23:56.580Z,14.70
2022-09-11T04:26:27.555Z,14.80
2022-09-11T04:29:01.233Z,14.70
2022-09-11T04:31:28.846Z,14.80
2022-09-11T04:33:58.049Z,14.80
2022-09-11T04:36:30.077Z,14.80
2022-09-11T04:38:58.800Z,14.80
2022-09-11T04:41:26.965Z,14.80
2022-09-11T04:43:57.562Z,14.80
2022-09-11T04:46:26.215Z,14.70
2022-09-11T04:49:04.577Z,14.70
2022-09-11T04:51:34.834Z,14.70
2022-09-11T04:54:02.996Z,14.70
2022-09-11T04:56:39.526Z,14.70
2022-09-11T04:59:16.088Z,14.70
2022-09-11T05:01:50.329Z,14.80
2022-09-11T05:04:21.801Z,14.80
2022-09-11T05:06:51.356Z,14.70
2022-09-11T05:09:19.511Z,14.70
2022-09-11T05:11:48.157Z,14.80
2022-09-11T05:14:15.939Z,14.80
2022-09-11T05:16:45.537Z,14.70
2022-09-11T05:19:14.581Z,14.70
2022-09-11T05:21:43.397Z,14.60
2022-09-11T05:24:10.426Z,14.70
2022-09-11T05:26:38.243Z,14.70
2022-09-11T05:29:11.735Z,14.70
2022-09-11T05:31:55.082Z,14.60
2022-09-11T05:34:22.284Z,14.60
2022-09-11T05:36:50.373Z,14.60
2022-09-11T05:39:18.069Z,14.50
2022-09-11T05:41:44.864Z,14.50
2022-09-11T05:44:13.316Z,14.40
2022-09-11T05:46:40.958Z,14.40
2022-09-11T05:49:07.846Z,14.30
2022-09-11T05:51:37.660Z,14.30
2022-09-11T05:54:05.695Z,14.30
2022-09-11T05:56:33.769Z,14.40
2022-09-11T05:59:11.001Z,14.40
2022-09-11T06:01:37.921Z,14.30
2022-09-11T06:04:15.761Z,14.30
2022-09-11T06:06:47.956Z,14.30
2022-09-11T06:09:15.811Z,14.20
2022-09-11T06:11:42.824Z,14.20
2022-09-11T06:14:10.066Z,14.20
2022-09-11T06:16:38.496Z,14.30
2022-09-11T06:19:11.079Z,14.30
2022-09-11T06:21:37.871Z,14.30
2022-09-11T06:24:11.334Z,14.40
2022-09-11T06:26:38.818Z,14.40
2022-09-11T06:29:05.718Z,14.40
2022-09-11T06:31:36.284Z,14.50
2022-09-11T06:34:03.463Z,14.40
2022-09-11T06:36:31.652Z,14.40
2022-09-11T06:39:01.080Z,14.40
2022-09-11T06:41:28.771Z,14.40
2022-09-11T06:44:01.933Z,14.50
2022-09-11T06:46:30.312Z,14.50
2022-09-11T06:48:58.943Z,14.50
2022-09-11T06:51:28.258Z,14.50
2022-09-11T06:53:58.327Z,14.40
2022-09-11T06:56:32.084Z,14.40
2022-09-11T06:59:00.552Z,14.30
2022-09-11T07:01:31.211Z,14.40
2022-09-11T07:04:02.744Z,14.30
2022-09-11T07:06:32.346Z,14.40
2022-09-11T07:09:02.542Z,14.40
2022-09-11T07:11:44.974Z,14.40
2022-09-11T07:14:12.443Z,14.40
2022-09-11T07:16:42.504Z,14.40
2022-09-11T07:19:12.435Z,14.40
2022-09-11T07:21:40.175Z,14.40
2022-09-11T07:24:08.693Z,14.60
2022-09-11T07:26:39.792Z,14.60
2022-09-11T07:29:13.038Z,14.60
2022-09-11T07:31:40.279Z,14.60
2022-09-11T07:34:07.329Z,14.60
2022-09-11T07:36:35.844Z,14.50
2022-09-11T07:39:06.437Z,14.50
2022-09-11T07:42:02.468Z,14.50
2022-09-11T07:44:35.169Z,14.50
2022-09-11T07:47:02.312Z,14.50
2022-09-11T07:49:32.372Z,14.50
2022-09-11T07:51:59.402Z,14.40
2022-09-11T07:54:38.033Z,14.50
2022-09-11T07:57:05.812Z,14.60
2022-09-11T07:59:32.709Z,14.60
2022-09-11T08:01:59.718Z,14.80
2022-09-11T08:04:26.800Z,14.70
2022-09-11T08:06:54.274Z,14.60
2022-09-11T08:09:27.430Z,14.70
2022-09-11T08:11:58.568Z,14.80
2022-09-11T08:14:27.477Z,14.80
2022-09-11T08:16:58.313Z,14.80
2022-09-11T08:19:27.825Z,14.90
2022-09-11T08:21:58.150Z,14.90
2022-09-11T08:24:25.034Z,14.90
2022-09-11T08:26:57.093Z,15.00
2022-09-11T08:29:25.619Z,15.00
2022-09-11T08:31:53.023Z,15.10
2022-09-11T08:34:22.216Z,15.20
2022-09-11T08:36:50.696Z,15.30
2022-09-11T08:39:17.697Z,15.20
2022-09-11T08:41:53.707Z,15.30
2022-09-11T08:44:27.393Z,15.40
2022-09-11T08:47:19.018Z,15.30
2022-09-11T08:49:58.958Z,15.30
2022-09-11T08:52:27.608Z,15.50
2022-09-11T08:54:58.198Z,15.60
2022-09-11T08:57:39.397Z,15.40
2022-09-11T09:00:24.979Z,15.40
2022-09-11T09:03:19.800Z,15.30
2022-09-11T09:06:25.388Z,15.40
2022-09-11T09:09:00.602Z,15.50
2022-09-11T09:11:40.698Z,15.60
2022-09-11T09:14:31.312Z,15.70
2022-09-11T09:17:05.020Z,15.70
2022-09-11T09:19:47.408Z,15.90
2022-09-11T09:22:38.302Z,15.90
2022-09-11T09:25:11.999Z,16.00
2022-09-11T09:27:47.188Z,15.90
2022-09-11T09:30:22.036Z,16.10
2022-09-11T09:32:58.551Z,16.10
2022-09-11T09:35:51.838Z,16.10
2022-09-11T09:38:27.278Z,16.30
2022-09-11T09:41:01.939Z,16.40
2022-09-11T09:43:41.405Z,16.40
2022-09-11T09:46:16.631Z,16.50
2022-09-11T09:48:44.007Z,16.70
2022-09-11T09:51:15.019Z,16.90
2022-09-11T09:54:05.890Z,17.00
2022-09-11T09:56:37.639Z,17.10
2022-09-11T09:59:18.312Z,17.10
2022-09-11T10:01:50.741Z,17.40
2022-09-11T10:04:20.414Z,17.70
2022-09-11T10:06:49.634Z,17.80
2022-09-11T10:09:27.096Z,17.90
2022-09-11T10:12:01.074Z,18.20
2022-09-11T10:14:50.374Z,18.20
2022-09-11T10:17:37.065Z,18.70
2022-09-11T10:20:15.982Z,18.40
2022-09-11T10:22:43.311Z,18.60
2022-09-11T10:25:14.240Z,18.70
2022-09-11T10:28:04.753Z,18.60
2022-09-11T10:31:00.578Z,18.30
2022-09-11T10:33:37.176Z,18.10
2022-09-11T10:36:09.032Z,18.10
2022-09-11T10:38:45.141Z,17.80
2022-09-11T10:41:19.250Z,17.90
2022-09-11T10:43:56.022Z,17.90
2022-09-11T10:46:40.720Z,17.90
2022-09-11T10:49:21.829Z,17.80
2022-09-11T10:52:03.819Z,18.10
2022-09-11T10:54:53.278Z,18.50
2022-09-11T10:57:33.219Z,18.90
2022-09-11T11:00:14.936Z,19.10
2022-09-11T11:02:48.876Z,19.40
2022-09-11T11:05:27.893Z,19.60
2022-09-11T11:08:14.880Z,19.70
2022-09-11T11:10:53.433Z,19.80
2022-09-11T11:13:33.786Z,19.80
2022-09-11T11:16:20.198Z,19.80
2022-09-11T11:19:00.753Z,19.60
2022-09-11T11:22:03.999Z,19.30
2022-09-11T11:24:46.440Z,19.20
2022-09-11T11:27:30.074Z,18.90
2022-09-11T11:30:08.364Z,18.70
2022-09-11T11:33:02.305Z,18.90
2022-09-11T11:35:44.798Z,19.00
2022-09-11T11:38:44.105Z,19.10
2022-09-11T11:41:42.548Z,19.10
2022-09-11T11:44:15.814Z,18.90
2022-09-11T11:46:52.192Z,18.90
2022-09-11T11:49:26.216Z,19.40
2022-09-11T11:52:02.560Z,19.50
2022-09-11T11:54:45.407Z,19.60
2022-09-11T11:57:18.603Z,19.90
2022-09-11T12:00:03.531Z,20.00
2022-09-11T12:03:07.586Z,20.10
2022-09-11T12:05:34.756Z,20.40
2022-09-11T12:08:02.188Z,20.40
2022-09-11T12:10:34.221Z,20.80
2022-09-11T12:13:05.666Z,21.00
2022-09-11T12:15:34.619Z,21.50
2022-09-11T12:18:03.357Z,21.80
2022-09-11T12:20:40.791Z,21.80
2022-09-11T12:23:30.982Z,21.60
2022-09-11T12:26:08.275Z,20.90
2022-09-11T12:28:35.794Z,20.90
2022-09-11T12:31:14.002Z,21.60
2022-09-11T12:33:44.314Z,21.50
2022-09-11T12:36:17.023Z,21.90
2022-09-11T12:38:48.866Z,22.30
2022-09-11T12:41:34.577Z,22.30
2022-09-11T12:44:06.416Z,21.90
2022-09-11T12:46:34.349Z,20.90
2022-09-11T12:49:22.271Z,20.90
2022-09-11T12:52:00.390Z,20.90
2022-09-11T12:54:45.380Z,21.20
2022-09-11T12:57:19.642Z,22.30
2022-09-11T12:59:53.381Z,23.00
2022-09-11T13:02:26.007Z,23.30
2022-09-11T13:04:54.817Z,22.80
2022-09-11T13:07:33.796Z,22.60
2022-09-11T13:10:08.770Z,22.80
2022-09-11T13:12:35.577Z,22.80
2022-09-11T13:15:02.559Z,23.40
2022-09-11T13:17:30.547Z,23.40
2022-09-11T13:20:22.996Z,23.50
2022-09-11T13:22:56.148Z,24.00
2022-09-11T13:25:28.093Z,24.10
2022-09-11T13:28:01.375Z,23.80
2022-09-11T13:30:28.547Z,24.10
2022-09-11T13:33:14.534Z,24.40
2022-09-11T13:35:45.829Z,24.80
2022-09-11T13:38:23.553Z,24.30
2022-09-11T13:41:08.825Z,23.80
2022-09-11T13:43:44.251Z,24.10
2022-09-11T13:46:24.771Z,24.70
2022-09-11T13:48:57.848Z,25.00
2022-09-11T13:51:31.878Z,26.00
2022-09-11T13:54:11.609Z,25.30
2022-09-11T13:56:45.149Z,25.90
2022-09-11T13:59:39.763Z,24.90
2022-09-11T14:02:40.291Z,24.10
2022-09-11T14:05:23.482Z,24.70
2022-09-11T14:08:24.602Z,25.20
2022-09-11T14:11:02.309Z,25.50
2022-09-11T14:13:49.684Z,25.10
2022-09-11T14:16:16.621Z,24.10
2022-09-11T14:18:50.335Z,24.30
2022-09-11T14:21:19.121Z,24.60
2022-09-11T14:23:50.547Z,23.90
2022-09-11T14:26:31.236Z,23.40
2022-09-11T14:29:36.308Z,22.60
2022-09-11T14:32:28.079Z,22.20
2022-09-11T14:34:54.961Z,23.10
2022-09-11T14:37:22.390Z,23.90
2022-09-11T14:39:56.770Z,24.50
2022-09-11T14:42:27.684Z,24.40
2022-09-11T14:44:54.525Z,24.20
2022-09-11T14:47:26.558Z,23.30
2022-09-11T14:49:55.373Z,22.80
2022-09-11T14:52:26.506Z,22.60
2022-09-11T14:54:53.691Z,22.60
2022-09-11T14:57:27.268Z,23.30
2022-09-11T14:59:54.270Z,23.50
2022-09-11T15:02:24.305Z,23.90
2022-09-11T15:04:53.380Z,23.90
2022-09-11T15:07:24.063Z,24.50
2022-09-11T15:09:52.862Z,25.50
2022-09-11T15:12:20.716Z,25.70
2022-09-11T15:14:57.547Z,25.50
2022-09-11T15:17:31.659Z,25.20
2022-09-11T15:20:00.267Z,24.10
2022-09-11T15:22:27.713Z,23.30
2022-09-11T15:24:56.444Z,22.50
2022-09-11T15:27:25.181Z,22.50
2022-09-11T15:29:53.110Z,22.50
2022-09-11T15:32:21.256Z,23.20
2022-09-11T15:34:48.050Z,23.50
2022-09-11T15:37:16.915Z,23.20
2022-09-11T15:39:43.957Z,23.00
2022-09-11T15:42:12.036Z,22.80
2022-09-11T15:44:38.801Z,22.60
2022-09-11T15:47:06.226Z,22.60
2022-09-11T15:49:39.256Z,22.20
2022-09-11T15:52:06.215Z,22.10
2022-09-11T15:54:33.108Z,22.00
2022-09-11T15:56:59.934Z,21.60
2022-09-11T15:59:26.692Z,21.80
2022-09-11T16:01:53.658Z,21.60
2022-09-11T16:04:21.935Z,21.50
2022-09-11T16:06:49.654Z,21.60
2022-09-11T16:09:19.568Z,21.60
2022-09-11T16:11:48.034Z,21.80
2022-09-11T16:14:19.031Z,21.90
2022-09-11T16:16:49.597Z,21.90
2022-09-11T16:19:18.532Z,21.60
2022-09-11T16:21:46.043Z,21.50
2022-09-11T16:24:14.762Z,21.70
2022-09-11T16:26:43.575Z,21.80
2022-09-11T16:29:15.175Z,21.90
2022-09-11T16:31:42.665Z,21.80
2022-09-11T16:34:10.306Z,21.40
2022-09-11T16:36:40.365Z,21.10
2022-09-11T16:39:09.007Z,21.00
2022-09-11T16:41:37.122Z,20.80
2022-09-11T16:44:05.919Z,21.00
2022-09-11T16:46:35.838Z,21.10
2022-09-11T16:49:03.080Z,21.30
2022-09-11T16:51:30.658Z,21.90
2022-09-11T16:53:57.681Z,22.00
2022-09-11T16:56:26.077Z,22.20
2022-09-11T16:58:54.296Z,22.20
2022-09-11T17:01:23.854Z,22.60
2022-09-11T17:03:52.840Z,22.30
2022-09-11T17:06:21.358Z,22.30
2022-09-11T17:08:50.642Z,22.10
2022-09-11T17:11:19.754Z,21.80
2022-09-11T17:13:47.194Z,21.80
2022-09-11T17:16:19.562Z,21.70
2022-09-11T17:18:56.792Z,21.40
2022-09-11T17:21:25.017Z,21.20
2022-09-11T17:23:54.106Z,20.80
2022-09-11T17:26:21.293Z,20.30
2022-09-11T17:28:49.599Z,20.00
2022-09-11T17:31:19.269Z,19.50
2022-09-11T17:33:47.538Z,19.00
2022-09-11T17:36:17.285Z,18.40
2022-09-11T17:38:46.845Z,18.00
2022-09-11T17:41:13.991Z,17.50
2022-09-11T17:43:40.999Z,17.20
2022-09-11T17:46:16.429Z,16.90
2022-09-11T17:48:43.789Z,16.70
2022-09-11T17:51:22.975Z,16.40
2022-09-11T17:53:53.021Z,16.30
2022-09-11T17:56:22.004Z,16.10
2022-09-11T17:58:53.517Z,16.00
2022-09-11T18:01:20.630Z,15.80
2022-09-11T18:03:52.604Z,15.60
2022-09-11T18:06:28.281Z,15.50
2022-09-11T18:08:57.919Z,15.40
2022-09-11T18:11:24.973Z,15.30
2022-09-11T18:13:51.894Z,15.20
2022-09-11T18:16:18.820Z,15.10
2022-09-11T18:18:45.697Z,15.00
2022-09-11T18:21:12.669Z,14.90
2022-09-11T18:23:41.990Z,14.80
2022-09-11T18:26:19.762Z,14.80
2022-09-11T18:28:46.932Z,14.70
2022-09-11T18:31:14.108Z,14.60
2022-09-11T18:33:40.979Z,14.50
2022-09-11T18:36:08.770Z,14.40
2022-09-11T18:38:35.757Z,14.30
2022-09-11T18:41:02.577Z,14.30
2022-09-11T18:43:29.388Z,14.30
2022-09-11T18:45:56.297Z,14.30
2022-09-11T18:48:23.112Z,14.20
2022-09-11T18:50:49.942Z,14.20
2022-09-11T18:53:17.944Z,14.10
2022-09-11T18:55:44.809Z,13.90
2022-09-11T18:58:11.951Z,13.90
2022-09-11T19:00:41.177Z,13.90
2022-09-11T19:03:08.086Z,14.00
2022-09-11T19:05:34.970Z,13.90
2022-09-11T19:08:02.463Z,13.90
2022-09-11T19:10:29.581Z,13.90
2022-09-11T19:12:56.406Z,13.80
2022-09-11T19:15:23.256Z,13.80
2022-09-11T19:17:50.409Z,13.80
2022-09-11T19:20:17.379Z,13.80
2022-09-11T19:22:44.384Z,13.70
2022-09-11T19:25:11.195Z,13.80
2022-09-11T19:27:38.200Z,13.90
2022-09-11T19:30:06.776Z,13.80
2022-09-11T19:32:33.773Z,13.90
2022-09-11T19:35:00.665Z,14.00
2022-09-11T19:37:28.366Z,14.10
2022-09-11T19:39:57.185Z,14.10
2022-09-11T19:42:24.146Z,14.20
2022-09-11T19:44:54.338Z,14.20
2022-09-11T19:47:24.984Z,14.20
2022-09-11T19:49:51.856Z,14.10
2022-09-11T19:52:18.976Z,14.00
2022-09-11T19:54:45.747Z,13.90
2022-09-11T19:57:12.568Z,13.90
2022-09-11T19:59:39.353Z,13.80
2022-09-11T20:02:06.488Z,13.80
2022-09-11T20:04:33.265Z,13.70
2022-09-11T20:07:00.573Z,13.80
2022-09-11T20:09:31.321Z,13.70
2022-09-11T20:12:00.800Z,13.70
2022-09-11T20:14:29.816Z,13.70
2022-09-11T20:16:57.387Z,13.70
2022-09-11T20:19:24.890Z,13.50
2022-09-11T20:21:52.186Z,13.60
2022-09-11T20:24:19.812Z,13.60
2022-09-11T20:26:46.660Z,13.70
2022-09-11T20:29:15.360Z,13.70
2022-09-11T20:31:47.430Z,13.70
2022-09-11T20:34:15.609Z,13.60
2022-09-11T20:36:42.411Z,13.70
2022-09-11T20:39:13.407Z,13.60
2022-09-11T20:41:40.435Z,13.60
2022-09-11T20:44:07.249Z,13.50
2022-09-11T20:46:34.105Z,13.70
2022-09-11T20:49:01.106Z,13.70
2022-09-11T20:51:28.194Z,13.80
2022-09-11T20:53:56.004Z,13.60
2022-09-11T20:56:23.800Z,13.50
2022-09-11T20:58:51.521Z,13.50
2022-09-11T21:01:21.373Z,13.40
2022-09-11T21:03:52.442Z,13.30
2022-09-11T21:06:25.378Z,13.30
2022-09-11T21:08:55.422Z,13.30
2022-09-11T21:11:23.495Z,13.30
2022-09-11T21:13:50.793Z,13.30
2022-09-11T21:16:19.664Z,13.30
2022-09-11T21:18:51.552Z,13.10
2022-09-11T21:21:19.034Z,13.10
2022-09-11T21:23:45.940Z,13.10
2022-09-11T21:26:16.277Z,13.20
2022-09-11T21:28:43.526Z,13.10
2022-09-11T21:31:10.864Z,13.10
2022-09-11T21:33:39.924Z,13.10
2022-09-11T21:36:07.462Z,13.10
2022-09-11T21:38:34.347Z,13.20
2022-09-11T21:41:03.653Z,13.40
2022-09-11T21:43:30.514Z,13.30
2022-09-11T21:45:57.323Z,13.20
2022-09-11T21:48:24.591Z,13.20
2022-09-11T21:50:51.724Z,13.20
2022-09-11T21:53:19.534Z,13.20
2022-09-11T21:55:48.446Z,13.30
2022-09-11T21:58:20.747Z,13.30
2022-09-11T22:00:48.732Z,13.00
2022-09-11T22:03:17.179Z,13.00
2022-09-11T22:05:46.402Z,13.10
2022-09-11T22:08:14.813Z,13.00
2022-09-11T22:10:51.182Z,13.10
2022-09-11T22:13:19.350Z,13.10
2022-09-11T22:15:48.857Z,13.10
2022-09-11T22:18:17.444Z,13.00
2022-09-11T22:20:44.746Z,13.00
2022-09-11T22:23:21.918Z,12.90
2022-09-11T22:25:56.837Z,13.00
2022-09-11T22:28:23.649Z,13.20
2022-09-11T22:30:50.537Z,13.30
2022-09-11T22:33:17.324Z,13.40
2022-09-11T22:35:47.707Z,13.40
2022-09-11T22:38:16.627Z,13.30
2022-09-11T22:40:43.441Z,13.20
2022-09-11T22:43:10.296Z,13.10
2022-09-11T22:45:37.372Z,12.90
2022-09-11T22:48:04.957Z,12.90
2022-09-11T22:50:33.426Z,12.90
2022-09-11T22:53:01.338Z,12.80
2022-09-11T22:55:28.149Z,12.90
2022-09-11T22:57:55.247Z,12.80
2022-09-11T23:00:22.152Z,12.90
2022-09-11T23:02:48.952Z,12.80
2022-09-11T23:05:34.635Z,12.70
2022-09-11T23:08:01.552Z,12.80
2022-09-11T23:10:28.315Z,12.90
2022-09-11T23:12:55.182Z,12.90
2022-09-11T23:15:22.234Z,12.90
2022-09-11T23:17:49.134Z,12.70
2022-09-11T23:20:16.224Z,12.50
2022-09-11T23:22:43.063Z,12.40
2022-09-11T23:25:11.154Z,12.40
2022-09-11T23:27:38.123Z,12.30
2022-09-11T23:30:05.298Z,12.40
2022-09-11T23:32:32.132Z,12.30
2022-09-11T23:34:58.912Z,12.30
2022-09-11T23:37:25.773Z,12.30
2022-09-11T23:39:52.761Z,12.30
2022-09-11T23:42:19.759Z,12.30
2022-09-11T23:44:46.609Z,12.20
2022-09-11T23:47:13.604Z,12.10
2022-09-11T23:49:41.054Z,12.00
2022-09-11T23:52:07.838Z,12.10
2022-09-11T23:54:34.681Z,12.20
2022-09-11T23:57:01.806Z,12.20
2022-09-11T23:59:28.598Z,12.30
